Johnstown, PA (15906)

3:02 AM EDT on September 05, 2015 (GMT -0400)
Brownstown | | Change Station
CLOSE
Current Station
Personal Weather Station
Location: Johnstown, PA
Elevation: 1516 ft
Nearby Weather Stations

Elev 1516 ft 40.34 °N, 78.94 °W | Updated 1 second ago

Partly Cloudy
Partly Cloudy
64.9 °F
Feels Like 64.9 °F
N
0.0
Wind Variable Wind from South
Gusts 0.0 mph

Today
High -- | Low -- °F
--% Chance of Precip.
Yesterday
High -- | Low -- °F
Precip. -- in
6:46 AM 7:41 PM
Waning Gibbous, 51% visible
Pressure 30.17 in
Visibility 4.0 miles
Clouds Few 900 ft
Dew Point 62 °F
Humidity 92%
Rainfall 0.00 in
Snow Depth Not available.
UV 0 out of 12
Pollen 8.50 out of 12
Air Quality Not available.
Flu Activity Not available.
METAR KJST 050654Z AUTO 14006KT 4SM BR FEW009 20/18 A3021 RMK AO2 SLP214 T02000178
Pressure 30.17 in
Visibility 4.0 miles
Clouds Few 900 ft
Dew Point 62 °F
Humidity 92%
Rainfall 0.00 in
Snow Depth Not available.
UV 0 out of 12
Pollen 8.50 out of 12
Air Quality Not available.
Flu Activity Not available.
METAR KJST 050654Z AUTO 14006KT 4SM BR FEW009 20/18 A3021 RMK AO2 SLP214 T02000178

10-Day Weather Forecast

×

Almanac

Astronomy

Sep. 05, 2015 Rise Set
Actual Time
Civil Twilight
Nautical Twilight
Astronomical Twilight
Moon
Length of Visible Light
Length of Day
Tomorrow will be .
, % of the Moon is Illuminated

Today's Extremes

State Highs State Lows

Community

WunderPhotos

Upload Photos

1,852,430 photos uploaded!

WunderBlogs® & News

Nearby

Air Quality

  Air Quality AQ Index Pollutant
Not available.

Snow Depth

Station Depth Elevation

Earthquake Activity

City Distance Mag. Time & Date
Minimum magnitude displayed is 2.5.

Coastal Water Temperatures

Place Temperature

Stations

Nearby Weather Stations

Station Location Temp. Windchill Dew Point Humidity Wind Precip. Elev Updated Type